South Wardsboro, Vermont
Current Conditions -  °F | °C
As of 2:54 PM on Friday 21 Nov 2014 (Local Time) from KDDH Reporting Station
Few Clouds Few Clouds  
Wind Chill: 21°   Ceiling: Unl
Heat Index: 30°   Visibility: 10mi
Dew Point:   Wind: 12mph
Humidity: 35%   Direction: 300°WNW
Pressure: 30.23"   Gusts: 23mph
Location:  43.0205°N, 72.8064°W
Report Text: KDDH 211954Z AUTO 30010G20KT 10SM FEW048 M01/M15 A3023 RMK AO2 SLP247 T10111150
Loading
Personal Weather Stations






























Interactive Weather Map New forecast layout! Learn more

10-Day Weather Forecast

Advertisements
Track Severe Weather on mobile